sensor_id;sensor_type;location;lat;lon;timestamp;P1;durP1;ratioP1;P2;durP2;ratioP2
45466;SDS011;31212;49.734;8.490;2023-04-24T00:01:17;3.35;;;0.98;;
45466;SDS011;31212;49.734;8.490;2023-04-24T00:03:44;1.33;;;1.23;;
45466;SDS011;31212;49.734;8.490;2023-04-24T00:06:10;0.88;;;0.57;;
45466;SDS011;31212;49.734;8.490;2023-04-24T00:08:37;0.40;;;0.40;;
45466;SDS011;31212;49.734;8.490;2023-04-24T00:11:05;0.65;;;0.63;;
45466;SDS011;31212;49.734;8.490;2023-04-24T00:13:31;0.90;;;0.60;;
45466;SDS011;31212;49.734;8.490;2023-04-24T00:15:58;1.27;;;0.75;;
45466;SDS011;31212;49.734;8.490;2023-04-24T00:18:24;1.80;;;0.45;;
45466;SDS011;31212;49.734;8.490;2023-04-24T00:20:51;2.75;;;0.52;;
45466;SDS011;31212;49.734;8.490;2023-04-24T00:23:17;1.42;;;0.55;;
45466;SDS011;31212;49.734;8.490;2023-04-24T00:25:44;1.48;;;1.20;;
45466;SDS011;31212;49.734;8.490;2023-04-24T00:28:11;0.98;;;0.80;;
45466;SDS011;31212;49.734;8.490;2023-04-24T00:30:39;0.68;;;0.57;;
45466;SDS011;31212;49.734;8.490;2023-04-24T00:33:06;0.50;;;0.50;;
45466;SDS011;31212;49.734;8.490;2023-04-24T00:35:32;1.58;;;0.47;;
45466;SDS011;31212;49.734;8.490;2023-04-24T00:37:59;2.88;;;0.55;;
45466;SDS011;31212;49.734;8.490;2023-04-24T00:40:26;1.30;;;0.80;;
45466;SDS011;31212;49.734;8.490;2023-04-24T00:42:53;3.53;;;0.75;;
45466;SDS011;31212;49.734;8.490;2023-04-24T00:45:20;1.73;;;0.90;;
45466;SDS011;31212;49.734;8.490;2023-04-24T00:47:47;1.70;;;0.80;;
45466;SDS011;31212;49.734;8.490;2023-04-24T00:50:14;2.08;;;0.77;;
45466;SDS011;31212;49.734;8.490;2023-04-24T00:52:42;2.05;;;0.52;;
45466;SDS011;31212;49.734;8.490;2023-04-24T00:55:09;2.45;;;0.80;;
45466;SDS011;31212;49.734;8.490;2023-04-24T00:57:35;0.40;;;0.35;;
45466;SDS011;31212;49.734;8.490;2023-04-24T01:00:02;1.10;;;0.65;;
45466;SDS011;31212;49.734;8.490;2023-04-24T01:02:38;3.05;;;1.02;;
45466;SDS011;31212;49.734;8.490;2023-04-24T01:05:09;4.40;;;1.50;;
45466;SDS011;31212;49.734;8.490;2023-04-24T01:07:36;0.73;;;0.70;;
45466;SDS011;31212;49.734;8.490;2023-04-24T01:10:04;2.42;;;0.70;;
45466;SDS011;31212;49.734;8.490;2023-04-24T01:12:31;1.88;;;0.75;;
45466;SDS011;31212;49.734;8.490;2023-04-24T01:14:58;1.02;;;0.60;;
45466;SDS011;31212;49.734;8.490;2023-04-24T01:17:25;1.17;;;0.50;;
45466;SDS011;31212;49.734;8.490;2023-04-24T01:19:54;1.05;;;0.90;;
45466;SDS011;31212;49.734;8.490;2023-04-24T01:22:24;0.60;;;0.60;;
45466;SDS011;31212;49.734;8.490;2023-04-24T01:24:50;1.95;;;1.17;;
45466;SDS011;31212;49.734;8.490;2023-04-24T01:27:18;0.75;;;0.68;;
45466;SDS011;31212;49.734;8.490;2023-04-24T01:29:45;1.08;;;0.57;;
45466;SDS011;31212;49.734;8.490;2023-04-24T01:32:14;5.03;;;0.80;;
45466;SDS011;31212;49.734;8.490;2023-04-24T01:34:41;0.80;;;0.80;;
45466;SDS011;31212;49.734;8.490;2023-04-24T01:37:08;1.27;;;0.65;;
45466;SDS011;31212;49.734;8.490;2023-04-24T01:39:37;0.82;;;0.52;;
45466;SDS011;31212;49.734;8.490;2023-04-24T01:42:04;1.55;;;1.23;;
45466;SDS011;31212;49.734;8.490;2023-04-24T01:44:30;6.22;;;0.90;;
45466;SDS011;31212;49.734;8.490;2023-04-24T01:46:57;1.70;;;0.77;;
45466;SDS011;31212;49.734;8.490;2023-04-24T01:49:24;1.67;;;1.00;;
45466;SDS011;31212;49.734;8.490;2023-04-24T01:51:51;1.08;;;0.65;;
45466;SDS011;31212;49.734;8.490;2023-04-24T01:54:17;2.38;;;0.80;;
45466;SDS011;31212;49.734;8.490;2023-04-24T01:56:45;0.90;;;0.73;;
45466;SDS011;31212;49.734;8.490;2023-04-24T01:59:12;1.27;;;0.85;;
45466;SDS011;31212;49.734;8.490;2023-04-24T02:01:41;0.68;;;0.60;;
45466;SDS011;31212;49.734;8.490;2023-04-24T02:04:07;3.28;;;1.13;;
45466;SDS011;31212;49.734;8.490;2023-04-24T02:06:34;1.45;;;0.80;;
45466;SDS011;31212;49.734;8.490;2023-04-24T02:09:01;0.52;;;0.50;;
45466;SDS011;31212;49.734;8.490;2023-04-24T02:11:28;1.50;;;0.77;;
45466;SDS011;31212;49.734;8.490;2023-04-24T02:13:57;1.13;;;0.98;;
45466;SDS011;31212;49.734;8.490;2023-04-24T02:16:24;1.75;;;0.82;;
45466;SDS011;31212;49.734;8.490;2023-04-24T02:18:50;1.10;;;0.85;;
45466;SDS011;31212;49.734;8.490;2023-04-24T02:21:17;4.70;;;1.65;;
45466;SDS011;31212;49.734;8.490;2023-04-24T02:23:43;1.38;;;0.93;;
45466;SDS011;31212;49.734;8.490;2023-04-24T02:26:12;1.83;;;0.88;;
45466;SDS011;31212;49.734;8.490;2023-04-24T02:28:38;0.93;;;0.80;;
45466;SDS011;31212;49.734;8.490;2023-04-24T02:31:06;1.70;;;1.27;;
45466;SDS011;31212;49.734;8.490;2023-04-24T02:33:32;2.15;;;0.90;;
45466;SDS011;31212;49.734;8.490;2023-04-24T02:35:59;1.60;;;1.00;;
45466;SDS011;31212;49.734;8.490;2023-04-24T02:38:25;1.58;;;0.82;;
45466;SDS011;31212;49.734;8.490;2023-04-24T02:40:52;0.82;;;0.80;;
45466;SDS011;31212;49.734;8.490;2023-04-24T02:43:18;0.50;;;0.50;;
45466;SDS011;31212;49.734;8.490;2023-04-24T02:45:45;1.48;;;0.90;;
45466;SDS011;31212;49.734;8.490;2023-04-24T02:48:13;1.02;;;0.80;;
45466;SDS011;31212;49.734;8.490;2023-04-24T02:50:39;2.03;;;1.40;;
45466;SDS011;31212;49.734;8.490;2023-04-24T02:53:06;0.77;;;0.77;;
45466;SDS011;31212;49.734;8.490;2023-04-24T02:55:32;1.08;;;0.70;;
45466;SDS011;31212;49.734;8.490;2023-04-24T02:57:58;4.75;;;1.40;;
45466;SDS011;31212;49.734;8.490;2023-04-24T03:00:25;4.10;;;0.80;;
45466;SDS011;31212;49.734;8.490;2023-04-24T03:02:52;0.77;;;0.77;;
45466;SDS011;31212;49.734;8.490;2023-04-24T03:05:20;2.17;;;1.15;;
45466;SDS011;31212;49.734;8.490;2023-04-24T03:07:46;3.80;;;0.80;;
45466;SDS011;31212;49.734;8.490;2023-04-24T03:10:13;1.33;;;0.65;;
45466;SDS011;31212;49.734;8.490;2023-04-24T03:12:40;6.13;;;2.47;;
45466;SDS011;31212;49.734;8.490;2023-04-24T03:15:07;3.80;;;0.70;;
45466;SDS011;31212;49.734;8.490;2023-04-24T03:17:36;2.22;;;1.20;;
45466;SDS011;31212;49.734;8.490;2023-04-24T03:20:02;4.05;;;2.13;;
45466;SDS011;31212;49.734;8.490;2023-04-24T03:22:32;6.45;;;3.53;;
45466;SDS011;31212;49.734;8.490;2023-04-24T03:25:00;3.80;;;2.08;;
45466;SDS011;31212;49.734;8.490;2023-04-24T03:27:26;11.60;;;4.13;;
45466;SDS011;31212;49.734;8.490;2023-04-24T03:29:56;4.95;;;3.33;;
45466;SDS011;31212;49.734;8.490;2023-04-24T03:32:33;9.85;;;3.83;;
45466;SDS011;31212;49.734;8.490;2023-04-24T03:35:01;8.68;;;3.97;;
45466;SDS011;31212;49.734;8.490;2023-04-24T03:37:28;5.63;;;2.53;;
45466;SDS011;31212;49.734;8.490;2023-04-24T03:40:09;3.25;;;2.10;;
45466;SDS011;31212;49.734;8.490;2023-04-24T03:42:37;3.35;;;2.08;;
45466;SDS011;31212;49.734;8.490;2023-04-24T03:45:04;5.07;;;1.67;;
45466;SDS011;31212;49.734;8.490;2023-04-24T03:47:34;3.80;;;2.40;;
45466;SDS011;31212;49.734;8.490;2023-04-24T03:50:03;9.00;;;3.72;;
45466;SDS011;31212;49.734;8.490;2023-04-24T03:52:31;2.22;;;1.50;;
45466;SDS011;31212;49.734;8.490;2023-04-24T03:54:58;3.80;;;1.60;;
45466;SDS011;31212;49.734;8.490;2023-04-24T03:57:27;2.47;;;1.45;;
45466;SDS011;31212;49.734;8.490;2023-04-24T04:00:05;4.20;;;2.25;;
45466;SDS011;31212;49.734;8.490;2023-04-24T04:02:39;1.95;;;1.52;;
45466;SDS011;31212;49.734;8.490;2023-04-24T04:05:07;5.22;;;1.60;;
45466;SDS011;31212;49.734;8.490;2023-04-24T04:07:34;1.70;;;1.35;;
45466;SDS011;31212;49.734;8.490;2023-04-24T04:10:01;3.22;;;2.10;;
45466;SDS011;31212;49.734;8.490;2023-04-24T04:12:29;7.60;;;3.00;;
45466;SDS011;31212;49.734;8.490;2023-04-24T04:14:57;3.35;;;2.78;;
45466;SDS011;31212;49.734;8.490;2023-04-24T04:17:23;2.45;;;1.70;;
45466;SDS011;31212;49.734;8.490;2023-04-24T04:19:50;2.15;;;1.80;;
45466;SDS011;31212;49.734;8.490;2023-04-24T04:22:17;4.88;;;3.00;;
45466;SDS011;31212;49.734;8.490;2023-04-24T04:24:47;4.70;;;2.78;;
45466;SDS011;31212;49.734;8.490;2023-04-24T04:27:16;3.92;;;2.78;;
45466;SDS011;31212;49.734;8.490;2023-04-24T04:29:50;4.18;;;2.72;;
45466;SDS011;31212;49.734;8.490;2023-04-24T04:32:18;3.70;;;2.22;;
45466;SDS011;31212;49.734;8.490;2023-04-24T04:34:45;3.63;;;2.40;;
45466;SDS011;31212;49.734;8.490;2023-04-24T04:37:12;3.40;;;2.08;;
45466;SDS011;31212;49.734;8.490;2023-04-24T04:39:52;3.10;;;2.70;;
45466;SDS011;31212;49.734;8.490;2023-04-24T04:42:22;3.05;;;2.25;;
45466;SDS011;31212;49.734;8.490;2023-04-24T04:44:50;5.50;;;3.20;;
45466;SDS011;31212;49.734;8.490;2023-04-24T04:49:50;7.50;;;1.98;;
45466;SDS011;31212;49.734;8.490;2023-04-24T04:52:20;3.05;;;1.75;;
45466;SDS011;31212;49.734;8.490;2023-04-24T04:54:53;2.78;;;1.85;;
45466;SDS011;31212;49.734;8.490;2023-04-24T04:57:22;3.08;;;1.63;;
45466;SDS011;31212;49.734;8.490;2023-04-24T04:59:48;3.72;;;2.00;;
45466;SDS011;31212;49.734;8.490;2023-04-24T05:02:26;2.83;;;1.80;;
45466;SDS011;31212;49.734;8.490;2023-04-24T05:04:53;4.05;;;2.15;;
45466;SDS011;31212;49.734;8.490;2023-04-24T05:07:21;3.92;;;2.10;;
45466;SDS011;31212;49.734;8.490;2023-04-24T05:09:50;9.93;;;3.13;;
45466;SDS011;31212;49.734;8.490;2023-04-24T05:12:18;4.55;;;3.72;;
45466;SDS011;31212;49.734;8.490;2023-04-24T05:14:49;4.60;;;2.67;;
45466;SDS011;31212;49.734;8.490;2023-04-24T05:17:16;3.35;;;2.05;;
45466;SDS011;31212;49.734;8.490;2023-04-24T05:19:44;4.45;;;3.33;;
45466;SDS011;31212;49.734;8.490;2023-04-24T05:22:12;6.05;;;2.90;;
45466;SDS011;31212;49.734;8.490;2023-04-24T05:24:47;6.00;;;2.88;;
45466;SDS011;31212;49.734;8.490;2023-04-24T05:27:33;3.45;;;1.98;;
45466;SDS011;31212;49.734;8.490;2023-04-24T05:30:02;3.95;;;2.50;;
45466;SDS011;31212;49.734;8.490;2023-04-24T05:32:29;3.78;;;2.72;;
45466;SDS011;31212;49.734;8.490;2023-04-24T05:34:57;2.90;;;2.10;;
45466;SDS011;31212;49.734;8.490;2023-04-24T05:37:24;2.35;;;1.95;;
45466;SDS011;31212;49.734;8.490;2023-04-24T05:39:51;10.18;;;2.47;;
45466;SDS011;31212;49.734;8.490;2023-04-24T05:42:18;4.95;;;2.63;;
45466;SDS011;31212;49.734;8.490;2023-04-24T05:44:44;3.13;;;1.98;;
45466;SDS011;31212;49.734;8.490;2023-04-24T05:47:11;3.20;;;2.08;;
45466;SDS011;31212;49.734;8.490;2023-04-24T05:49:37;6.10;;;2.08;;
45466;SDS011;31212;49.734;8.490;2023-04-24T05:52:05;4.20;;;2.30;;
45466;SDS011;31212;49.734;8.490;2023-04-24T05:54:34;3.83;;;2.38;;
45466;SDS011;31212;49.734;8.490;2023-04-24T05:57:01;5.72;;;2.58;;
45466;SDS011;31212;49.734;8.490;2023-04-24T05:59:45;8.70;;;2.88;;
45466;SDS011;31212;49.734;8.490;2023-04-24T06:02:13;3.97;;;1.90;;
45466;SDS011;31212;49.734;8.490;2023-04-24T06:04:39;3.47;;;2.33;;
45466;SDS011;31212;49.734;8.490;2023-04-24T06:07:08;5.43;;;2.63;;
45466;SDS011;31212;49.734;8.490;2023-04-24T06:09:34;5.32;;;2.95;;
45466;SDS011;31212;49.734;8.490;2023-04-24T06:12:01;7.38;;;3.03;;
45466;SDS011;31212;49.734;8.490;2023-04-24T06:14:37;4.18;;;2.80;;
45466;SDS011;31212;49.734;8.490;2023-04-24T06:17:15;5.32;;;3.78;;
45466;SDS011;31212;49.734;8.490;2023-04-24T06:19:42;4.30;;;2.88;;
45466;SDS011;31212;49.734;8.490;2023-04-24T06:22:10;5.15;;;2.60;;
45466;SDS011;31212;49.734;8.490;2023-04-24T06:24:37;7.93;;;3.30;;
45466;SDS011;31212;49.734;8.490;2023-04-24T06:27:03;4.63;;;2.75;;
45466;SDS011;31212;49.734;8.490;2023-04-24T06:29:30;8.77;;;2.90;;
45466;SDS011;31212;49.734;8.490;2023-04-24T06:31:56;4.80;;;2.20;;
45466;SDS011;31212;49.734;8.490;2023-04-24T06:34:23;9.20;;;2.95;;
45466;SDS011;31212;49.734;8.490;2023-04-24T06:36:49;4.85;;;2.60;;
45466;SDS011;31212;49.734;8.490;2023-04-24T06:39:17;3.53;;;2.38;;
45466;SDS011;31212;49.734;8.490;2023-04-24T06:41:44;4.05;;;2.50;;
45466;SDS011;31212;49.734;8.490;2023-04-24T06:44:18;3.67;;;2.60;;
45466;SDS011;31212;49.734;8.490;2023-04-24T06:46:44;3.35;;;2.03;;
45466;SDS011;31212;49.734;8.490;2023-04-24T06:49:11;3.17;;;2.22;;
45466;SDS011;31212;49.734;8.490;2023-04-24T06:51:37;7.97;;;2.83;;
45466;SDS011;31212;49.734;8.490;2023-04-24T06:54:04;5.95;;;3.40;;
45466;SDS011;31212;49.734;8.490;2023-04-24T06:56:31;5.07;;;2.83;;
45466;SDS011;31212;49.734;8.490;2023-04-24T06:58:59;4.15;;;3.05;;
45466;SDS011;31212;49.734;8.490;2023-04-24T07:01:25;5.43;;;3.03;;
45466;SDS011;31212;49.734;8.490;2023-04-24T07:03:52;4.25;;;2.85;;
45466;SDS011;31212;49.734;8.490;2023-04-24T07:06:18;3.90;;;2.75;;
45466;SDS011;31212;49.734;8.490;2023-04-24T07:08:47;4.93;;;3.13;;
45466;SDS011;31212;49.734;8.490;2023-04-24T07:11:14;4.65;;;2.95;;
45466;SDS011;31212;49.734;8.490;2023-04-24T07:13:42;3.72;;;2.40;;
45466;SDS011;31212;49.734;8.490;2023-04-24T07:16:09;7.22;;;2.50;;
45466;SDS011;31212;49.734;8.490;2023-04-24T07:18:35;4.68;;;2.60;;
45466;SDS011;31212;49.734;8.490;2023-04-24T07:21:02;3.97;;;2.50;;
45466;SDS011;31212;49.734;8.490;2023-04-24T07:23:29;5.32;;;2.42;;
45466;SDS011;31212;49.734;8.490;2023-04-24T07:25:55;3.30;;;2.30;;
45466;SDS011;31212;49.734;8.490;2023-04-24T07:28:22;1.85;;;1.55;;
45466;SDS011;31212;49.734;8.490;2023-04-24T07:30:51;3.25;;;1.90;;
45466;SDS011;31212;49.734;8.490;2023-04-24T07:33:19;4.43;;;1.80;;
45466;SDS011;31212;49.734;8.490;2023-04-24T07:35:45;3.53;;;2.33;;
45466;SDS011;31212;49.734;8.490;2023-04-24T07:38:12;4.25;;;2.08;;
45466;SDS011;31212;49.734;8.490;2023-04-24T07:40:38;2.80;;;1.77;;
45466;SDS011;31212;49.734;8.490;2023-04-24T07:43:05;2.65;;;1.90;;
45466;SDS011;31212;49.734;8.490;2023-04-24T07:45:32;3.03;;;1.13;;
45466;SDS011;31212;49.734;8.490;2023-04-24T07:48:02;1.73;;;1.02;;
45466;SDS011;31212;49.734;8.490;2023-04-24T07:50:29;1.30;;;0.90;;
45466;SDS011;31212;49.734;8.490;2023-04-24T07:52:55;2.38;;;1.25;;
45466;SDS011;31212;49.734;8.490;2023-04-24T07:55:22;1.73;;;1.02;;
45466;SDS011;31212;49.734;8.490;2023-04-24T07:57:48;1.67;;;0.80;;
45466;SDS011;31212;49.734;8.490;2023-04-24T08:00:15;1.70;;;1.17;;
45466;SDS011;31212;49.734;8.490;2023-04-24T08:02:42;2.50;;;1.65;;
45466;SDS011;31212;49.734;8.490;2023-04-24T08:05:10;1.45;;;0.95;;
45466;SDS011;31212;49.734;8.490;2023-04-24T08:07:36;2.10;;;1.40;;
45466;SDS011;31212;49.734;8.490;2023-04-24T08:10:04;3.38;;;1.08;;
45466;SDS011;31212;49.734;8.490;2023-04-24T08:12:31;1.27;;;1.00;;
45466;SDS011;31212;49.734;8.490;2023-04-24T08:14:58;2.90;;;1.60;;
45466;SDS011;31212;49.734;8.490;2023-04-24T08:17:24;3.03;;;1.17;;
45466;SDS011;31212;49.734;8.490;2023-04-24T08:19:51;3.10;;;1.27;;
45466;SDS011;31212;49.734;8.490;2023-04-24T08:22:25;0.88;;;0.88;;
45466;SDS011;31212;49.734;8.490;2023-04-24T08:24:51;4.45;;;1.52;;
45466;SDS011;31212;49.734;8.490;2023-04-24T08:27:18;1.85;;;1.40;;
45466;SDS011;31212;49.734;8.490;2023-04-24T08:29:44;2.53;;;1.92;;
45466;SDS011;31212;49.734;8.490;2023-04-24T08:32:11;2.80;;;1.60;;
45466;SDS011;31212;49.734;8.490;2023-04-24T08:34:37;1.98;;;1.42;;
45466;SDS011;31212;49.734;8.490;2023-04-24T08:37:04;2.08;;;1.65;;
45466;SDS011;31212;49.734;8.490;2023-04-24T08:39:32;3.30;;;1.08;;
45466;SDS011;31212;49.734;8.490;2023-04-24T08:41:58;4.15;;;1.70;;
45466;SDS011;31212;49.734;8.490;2023-04-24T08:44:30;4.63;;;2.08;;
45466;SDS011;31212;49.734;8.490;2023-04-24T08:46:58;1.25;;;1.15;;
45466;SDS011;31212;49.734;8.490;2023-04-24T08:49:25;2.70;;;1.50;;
45466;SDS011;31212;49.734;8.490;2023-04-24T08:51:53;2.65;;;2.03;;
45466;SDS011;31212;49.734;8.490;2023-04-24T08:54:19;3.17;;;1.60;;
45466;SDS011;31212;49.734;8.490;2023-04-24T08:56:48;4.78;;;1.42;;
45466;SDS011;31212;49.734;8.490;2023-04-24T08:59:15;2.25;;;1.55;;
45466;SDS011;31212;49.734;8.490;2023-04-24T09:01:42;2.42;;;1.80;;
45466;SDS011;31212;49.734;8.490;2023-04-24T09:04:10;1.90;;;1.42;;
45466;SDS011;31212;49.734;8.490;2023-04-24T09:06:39;2.45;;;1.50;;
45466;SDS011;31212;49.734;8.490;2023-04-24T09:09:06;2.58;;;1.40;;
45466;SDS011;31212;49.734;8.490;2023-04-24T09:11:35;5.88;;;1.63;;
45466;SDS011;31212;49.734;8.490;2023-04-24T09:14:04;4.30;;;2.00;;
45466;SDS011;31212;49.734;8.490;2023-04-24T09:16:31;2.58;;;1.75;;
45466;SDS011;31212;49.734;8.490;2023-04-24T09:18:58;2.58;;;1.63;;
45466;SDS011;31212;49.734;8.490;2023-04-24T09:21:25;3.47;;;2.30;;
45466;SDS011;31212;49.734;8.490;2023-04-24T09:23:58;6.05;;;4.00;;
45466;SDS011;31212;49.734;8.490;2023-04-24T09:26:25;2.60;;;1.80;;
45466;SDS011;31212;49.734;8.490;2023-04-24T09:28:53;2.60;;;2.05;;
45466;SDS011;31212;49.734;8.490;2023-04-24T09:31:21;3.25;;;2.10;;
45466;SDS011;31212;49.734;8.490;2023-04-24T09:33:53;3.60;;;1.63;;
45466;SDS011;31212;49.734;8.490;2023-04-24T09:36:26;3.33;;;2.08;;
45466;SDS011;31212;49.734;8.490;2023-04-24T09:38:57;2.88;;;2.35;;
45466;SDS011;31212;49.734;8.490;2023-04-24T09:41:24;2.88;;;1.88;;
45466;SDS011;31212;49.734;8.490;2023-04-24T09:43:53;1.95;;;1.60;;
45466;SDS011;31212;49.734;8.490;2023-04-24T09:46:21;3.95;;;2.42;;
45466;SDS011;31212;49.734;8.490;2023-04-24T09:48:55;3.45;;;1.60;;
45466;SDS011;31212;49.734;8.490;2023-04-24T09:51:32;2.55;;;1.50;;
45466;SDS011;31212;49.734;8.490;2023-04-24T09:54:00;3.03;;;1.58;;
45466;SDS011;31212;49.734;8.490;2023-04-24T09:56:26;2.28;;;1.58;;
45466;SDS011;31212;49.734;8.490;2023-04-24T09:58:53;1.80;;;1.30;;
45466;SDS011;31212;49.734;8.490;2023-04-24T10:01:30;2.58;;;1.52;;
45466;SDS011;31212;49.734;8.490;2023-04-24T10:03:57;1.92;;;1.45;;
45466;SDS011;31212;49.734;8.490;2023-04-24T10:06:24;2.05;;;1.10;;
45466;SDS011;31212;49.734;8.490;2023-04-24T10:08:57;1.42;;;1.27;;
45466;SDS011;31212;49.734;8.490;2023-04-24T10:11:25;2.20;;;1.42;;
45466;SDS011;31212;49.734;8.490;2023-04-24T10:13:52;2.20;;;1.50;;
45466;SDS011;31212;49.734;8.490;2023-04-24T10:16:21;3.28;;;1.90;;
45466;SDS011;31212;49.734;8.490;2023-04-24T10:18:49;3.22;;;1.30;;
45466;SDS011;31212;49.734;8.490;2023-04-24T10:21:17;2.00;;;1.40;;
45466;SDS011;31212;49.734;8.490;2023-04-24T10:23:44;8.32;;;2.10;;
45466;SDS011;31212;49.734;8.490;2023-04-24T10:26:12;2.33;;;1.40;;
45466;SDS011;31212;49.734;8.490;2023-04-24T10:28:42;3.03;;;1.80;;
45466;SDS011;31212;49.734;8.490;2023-04-24T10:31:10;1.50;;;1.05;;
45466;SDS011;31212;49.734;8.490;2023-04-24T10:33:38;3.33;;;2.40;;
45466;SDS011;31212;49.734;8.490;2023-04-24T10:36:07;3.45;;;1.95;;
45466;SDS011;31212;49.734;8.490;2023-04-24T10:38:35;1.88;;;1.70;;
45466;SDS011;31212;49.734;8.490;2023-04-24T10:41:08;1.85;;;1.58;;
45466;SDS011;31212;49.734;8.490;2023-04-24T10:43:39;1.58;;;1.02;;
45466;SDS011;31212;49.734;8.490;2023-04-24T10:46:06;4.03;;;1.35;;
45466;SDS011;31212;49.734;8.490;2023-04-24T10:48:33;1.98;;;1.52;;
45466;SDS011;31212;49.734;8.490;2023-04-24T10:51:00;2.47;;;1.38;;
45466;SDS011;31212;49.734;8.490;2023-04-24T10:53:29;2.20;;;1.10;;
45466;SDS011;31212;49.734;8.490;2023-04-24T10:55:57;1.95;;;1.30;;
45466;SDS011;31212;49.734;8.490;2023-04-24T10:58:36;2.22;;;1.33;;
45466;SDS011;31212;49.734;8.490;2023-04-24T11:01:05;2.60;;;1.52;;
45466;SDS011;31212;49.734;8.490;2023-04-24T11:03:32;2.95;;;1.27;;
45466;SDS011;31212;49.734;8.490;2023-04-24T11:06:01;4.63;;;1.40;;
45466;SDS011;31212;49.734;8.490;2023-04-24T11:08:31;5.75;;;1.70;;
45466;SDS011;31212;49.734;8.490;2023-04-24T11:11:04;2.60;;;1.55;;
45466;SDS011;31212;49.734;8.490;2023-04-24T11:16:29;2.33;;;1.50;;
45466;SDS011;31212;49.734;8.490;2023-04-24T11:19:01;1.50;;;1.40;;
45466;SDS011;31212;49.734;8.490;2023-04-24T11:21:31;2.83;;;1.33;;
45466;SDS011;31212;49.734;8.490;2023-04-24T11:23:59;3.67;;;1.58;;
45466;SDS011;31212;49.734;8.490;2023-04-24T11:27:11;1.58;;;1.30;;
45466;SDS011;31212;49.734;8.490;2023-04-24T11:29:44;1.33;;;1.20;;
45466;SDS011;31212;49.734;8.490;2023-04-24T11:32:16;1.33;;;1.10;;
45466;SDS011;31212;49.734;8.490;2023-04-24T11:34:53;2.13;;;1.60;;
45466;SDS011;31212;49.734;8.490;2023-04-24T11:37:21;4.15;;;1.95;;
45466;SDS011;31212;49.734;8.490;2023-04-24T11:39:51;2.35;;;1.58;;
45466;SDS011;31212;49.734;8.490;2023-04-24T11:42:19;2.30;;;1.50;;
45466;SDS011;31212;49.734;8.490;2023-04-24T11:44:47;1.80;;;1.27;;
45466;SDS011;31212;49.734;8.490;2023-04-24T11:47:15;4.65;;;1.70;;
45466;SDS011;31212;49.734;8.490;2023-04-24T11:49:41;4.35;;;1.77;;
45466;SDS011;31212;49.734;8.490;2023-04-24T11:52:08;3.42;;;2.55;;
45466;SDS011;31212;49.734;8.490;2023-04-24T11:54:35;6.05;;;1.98;;
45466;SDS011;31212;49.734;8.490;2023-04-24T11:57:04;2.35;;;1.80;;
45466;SDS011;31212;49.734;8.490;2023-04-24T11:59:35;3.45;;;2.40;;
45466;SDS011;31212;49.734;8.490;2023-04-24T12:02:02;3.85;;;1.90;;
45466;SDS011;31212;49.734;8.490;2023-04-24T12:04:37;3.63;;;1.85;;
45466;SDS011;31212;49.734;8.490;2023-04-24T12:07:05;3.22;;;1.80;;
45466;SDS011;31212;49.734;8.490;2023-04-24T12:09:43;4.35;;;2.20;;
45466;SDS011;31212;49.734;8.490;2023-04-24T12:12:11;3.47;;;1.65;;
45466;SDS011;31212;49.734;8.490;2023-04-24T12:14:42;2.50;;;1.65;;
45466;SDS011;31212;49.734;8.490;2023-04-24T12:17:11;3.72;;;2.35;;
45466;SDS011;31212;49.734;8.490;2023-04-24T12:19:37;2.95;;;2.15;;
45466;SDS011;31212;49.734;8.490;2023-04-24T12:22:10;4.22;;;2.33;;
45466;SDS011;31212;49.734;8.490;2023-04-24T12:24:54;4.43;;;2.47;;
45466;SDS011;31212;49.734;8.490;2023-04-24T12:27:24;3.60;;;1.83;;
45466;SDS011;31212;49.734;8.490;2023-04-24T12:29:53;2.70;;;1.77;;
45466;SDS011;31212;49.734;8.490;2023-04-24T12:32:22;8.60;;;2.00;;
45466;SDS011;31212;49.734;8.490;2023-04-24T12:34:49;2.58;;;1.83;;
45466;SDS011;31212;49.734;8.490;2023-04-24T12:37:15;3.75;;;1.90;;
45466;SDS011;31212;49.734;8.490;2023-04-24T12:39:44;2.13;;;1.58;;
45466;SDS011;31212;49.734;8.490;2023-04-24T12:42:27;4.90;;;1.58;;
45466;SDS011;31212;49.734;8.490;2023-04-24T12:44:56;2.28;;;2.05;;
45466;SDS011;31212;49.734;8.490;2023-04-24T12:47:23;2.08;;;1.88;;
45466;SDS011;31212;49.734;8.490;2023-04-24T12:49:50;2.63;;;1.85;;
45466;SDS011;31212;49.734;8.490;2023-04-24T12:52:17;2.88;;;1.67;;
45466;SDS011;31212;49.734;8.490;2023-04-24T12:54:45;2.40;;;1.52;;
45466;SDS011;31212;49.734;8.490;2023-04-24T12:57:11;2.00;;;1.55;;
45466;SDS011;31212;49.734;8.490;2023-04-24T12:59:39;1.92;;;1.17;;
45466;SDS011;31212;49.734;8.490;2023-04-24T13:02:06;2.03;;;1.70;;
45466;SDS011;31212;49.734;8.490;2023-04-24T13:04:34;5.55;;;1.73;;
45466;SDS011;31212;49.734;8.490;2023-04-24T13:07:00;3.33;;;1.25;;
45466;SDS011;31212;49.734;8.490;2023-04-24T13:09:27;2.67;;;1.60;;
45466;SDS011;31212;49.734;8.490;2023-04-24T13:11:53;4.35;;;2.53;;
45466;SDS011;31212;49.734;8.490;2023-04-24T13:14:21;2.83;;;1.88;;
45466;SDS011;31212;49.734;8.490;2023-04-24T13:16:49;4.00;;;2.20;;
45466;SDS011;31212;49.734;8.490;2023-04-24T13:19:15;4.43;;;2.08;;
45466;SDS011;31212;49.734;8.490;2023-04-24T13:21:42;3.80;;;1.88;;
45466;SDS011;31212;49.734;8.490;2023-04-24T13:24:08;3.17;;;1.90;;
45466;SDS011;31212;49.734;8.490;2023-04-24T13:26:35;3.60;;;1.50;;
45466;SDS011;31212;49.734;8.490;2023-04-24T13:29:02;4.43;;;1.63;;
45466;SDS011;31212;49.734;8.490;2023-04-24T13:31:28;2.45;;;1.65;;
45466;SDS011;31212;49.734;8.490;2023-04-24T13:33:56;4.18;;;2.10;;
45466;SDS011;31212;49.734;8.490;2023-04-24T13:36:23;2.28;;;1.73;;
45466;SDS011;31212;49.734;8.490;2023-04-24T13:38:50;2.47;;;1.58;;
45466;SDS011;31212;49.734;8.490;2023-04-24T13:41:17;2.85;;;1.75;;
45466;SDS011;31212;49.734;8.490;2023-04-24T13:43:43;2.15;;;1.40;;
45466;SDS011;31212;49.734;8.490;2023-04-24T13:46:09;1.85;;;1.38;;
45466;SDS011;31212;49.734;8.490;2023-04-24T13:48:36;8.98;;;1.83;;
45466;SDS011;31212;49.734;8.490;2023-04-24T13:51:04;2.45;;;1.65;;
45466;SDS011;31212;49.734;8.490;2023-04-24T13:53:30;2.10;;;1.73;;
45466;SDS011;31212;49.734;8.490;2023-04-24T13:55:57;2.97;;;1.60;;
45466;SDS011;31212;49.734;8.490;2023-04-24T13:58:25;3.42;;;2.08;;
45466;SDS011;31212;49.734;8.490;2023-04-24T14:00:51;2.28;;;1.27;;
45466;SDS011;31212;49.734;8.490;2023-04-24T14:03:18;3.53;;;1.65;;
45466;SDS011;31212;49.734;8.490;2023-04-24T14:05:44;2.13;;;1.67;;
45466;SDS011;31212;49.734;8.490;2023-04-24T14:08:12;5.30;;;2.40;;
45466;SDS011;31212;49.734;8.490;2023-04-24T14:10:39;5.53;;;1.60;;
45466;SDS011;31212;49.734;8.490;2023-04-24T14:13:05;2.35;;;1.48;;
45466;SDS011;31212;49.734;8.490;2023-04-24T14:15:32;3.63;;;2.00;;
45466;SDS011;31212;49.734;8.490;2023-04-24T14:17:58;3.17;;;1.67;;
45466;SDS011;31212;49.734;8.490;2023-04-24T14:20:25;2.33;;;1.45;;
45466;SDS011;31212;49.734;8.490;2023-04-24T14:22:51;2.13;;;1.50;;
45466;SDS011;31212;49.734;8.490;2023-04-24T14:25:19;1.83;;;1.33;;
45466;SDS011;31212;49.734;8.490;2023-04-24T14:27:47;2.75;;;1.77;;
45466;SDS011;31212;49.734;8.490;2023-04-24T14:30:14;3.28;;;1.95;;
45466;SDS011;31212;49.734;8.490;2023-04-24T14:32:41;3.47;;;2.03;;
45466;SDS011;31212;49.734;8.490;2023-04-24T14:35:08;3.72;;;1.98;;
45466;SDS011;31212;49.734;8.490;2023-04-24T14:37:35;4.60;;;1.70;;
45466;SDS011;31212;49.734;8.490;2023-04-24T14:40:01;1.70;;;1.10;;
45466;SDS011;31212;49.734;8.490;2023-04-24T14:42:30;2.90;;;1.63;;
45466;SDS011;31212;49.734;8.490;2023-04-24T14:44:57;4.28;;;2.05;;
45466;SDS011;31212;49.734;8.490;2023-04-24T14:47:23;5.10;;;2.03;;
45466;SDS011;31212;49.734;8.490;2023-04-24T14:49:50;2.47;;;1.50;;
45466;SDS011;31212;49.734;8.490;2023-04-24T14:52:16;6.50;;;2.53;;
45466;SDS011;31212;49.734;8.490;2023-04-24T14:54:43;3.58;;;2.00;;
45466;SDS011;31212;49.734;8.490;2023-04-24T14:57:10;5.82;;;1.80;;
45466;SDS011;31212;49.734;8.490;2023-04-24T14:59:37;6.43;;;2.17;;